Latest Weather Observations for Cape Borda

IDS60801

Issued at 3:31 pm CST Tuesday 26 July 2016 (issued every 30 minutes, with the page automatically refreshed every 10 minutes)

About weather observations | Map of weather stations | Latest weather observations for SA | Other Formats
Station Details ID: 022823 Name: CAPE BORDA Lat: -35.75 Lon: 136.60 Height: 158.0 m
Data from the previous 72 hours. | See also: Recent months at Cape Borda
Date/Time
CST
Temp
°C
App
Temp
°C
Dew
Point
°C
Rel
Hum
%
Delta-T
°C
Wind Press
QNH
hPa
Press
MSL
hPa
Rain since
9am
mm
Dir  Spd
km/h
Gust
km/h
Spd
kts
Gust
kts
26/03:30pm 9.9 3.0 8.7 92 0.6 WSW 35 50 19 27 1004.9 - 5.6
26/03:24pm 9.6 2.6 8.4 92 0.6 W 35 48 19 26 1004.9 - 5.6
26/03:14pm 10.0 -0.9 9.6 97 0.2 W 57 83 31 45 1004.9 - 5.0
26/03:00pm 10.9 2.1 9.5 91 0.7 WNW 46 72 25 39 1004.5 1004.6 3.0
26/02:30pm 11.0 1.4 8.0 82 1.5 WNW 48 67 26 36 1005.2 - 2.8
26/02:00pm 11.8 2.3 8.4 80 1.7 WNW 48 70 26 38 1005.4 - 2.6
26/01:30pm 10.9 0.8 8.9 87 1.0 NW 52 82 28 44 1006.3 - 2.6
26/01:25pm 11.0 1.0 7.7 80 1.6 NW 50 82 27 44 1006.6 - 2.4
26/01:00pm 10.8 2.1 7.7 81 1.5 WNW 43 63 23 34 1007.5 - 2.4
26/12:30pm 11.4 2.2 6.4 71 2.4 WNW 44 63 24 34 1008.3 - 1.8
26/12:00pm 11.3 1.7 6.2 71 2.4 WNW 46 67 25 36 1009.3 1009.4 1.8
26/11:42am 10.4 2.2 6.6 77 1.8 WNW 39 57 21 31 1009.9 - 1.8
26/11:30am 10.3 2.0 7.8 84 1.2 NW 41 57 22 31 1009.9 - 1.8
26/11:08am 10.5 3.3 7.6 82 1.4 NW 35 59 19 32 1010.5 - 1.4
26/11:00am 10.6 3.2 6.8 77 1.8 WNW 35 48 19 26 1010.6 - 1.4
26/10:33am 9.8 2.4 8.4 91 0.7 WNW 37 56 20 30 1011.1 - 1.4
26/10:30am 10.0 1.8 8.4 90 0.8 WNW 41 56 22 30 1011.2 - 1.2
26/10:00am 9.4 1.7 7.1 85 1.1 WNW 37 69 20 37 1011.7 - 0.8
26/09:30am 10.8 2.9 6.1 73 2.2 NW 37 57 20 31 1011.8 - 0.0
26/09:00am 10.6 2.9 3.6 62 3.1 WNW 33 52 18 28 1012.0 1012.2 3.8
26/08:53am 10.5 3.1 4.0 64 2.9 NW 32 50 17 27 1011.9 - 3.8
26/08:30am 9.7 2.8 6.3 79 1.6 WNW 32 46 17 25 1012.2 - 3.8
26/08:00am 9.1 2.2 7.2 88 0.9 WNW 33 54 18 29 1012.8 - 3.4
26/07:54am 9.4 3.3 6.6 83 1.3 WNW 28 54 15 29 1012.8 - 3.4
26/07:30am 10.0 3.1 4.7 69 2.4 WNW 30 43 16 23 1012.7 - 3.2
26/07:00am 9.7 2.4 4.6 70 2.3 WNW 32 43 17 23 1013.0 - 3.2
26/06:30am 9.8 2.8 4.2 68 2.5 WNW 30 44 16 24 1012.8 - 3.2
26/06:00am 9.4 2.5 4.5 71 2.2 W 30 43 16 23 1013.1 1013.3 3.2
26/05:31am 8.1 0.3 4.7 79 1.5 W 35 54 19 29 1013.6 - 3.2
26/05:30am 8.1 -0.1 4.5 78 1.6 W 37 54 20 29 1013.6 - 3.2
26/05:05am 9.6 0.5 2.1 59 3.2 W 39 57 21 31 1013.4 - 3.0
26/05:03am 9.7 -0.2 1.6 57 3.4 W 43 57 23 31 1013.4 - 3.0
26/05:00am 9.6 4.1 4.0 68 2.5 W 22 37 12 20 1013.4 - 3.0
26/04:32am 9.4 2.2 3.2 65 2.7 W 30 48 16 26 1013.7 - 3.0
26/04:30am 9.3 1.8 3.3 66 2.6 W 32 48 17 26 1013.7 - 3.0
26/04:00am 9.3 1.8 1.4 58 3.3 W 30 43 16 23 1013.9 - 3.0
26/03:31am 9.6 2.3 2.3 60 3.1 W 30 50 16 27 1014.3 - 3.0
26/03:30am 9.6 2.8 2.9 63 2.9 W 28 43 15 23 1014.3 - 3.0
26/03:00am 9.1 2.7 3.1 66 2.6 W 26 39 14 21 1014.7 1014.8 3.0
26/02:30am 9.5 3.4 2.5 61 3.0 WSW 24 35 13 19 1014.9 - 3.0
26/02:00am 9.2 2.6 2.1 61 3.0 WSW 26 35 14 19 1015.1 - 3.0
26/01:30am 8.7 2.4 3.9 72 2.1 SW 26 35 14 19 1015.3 - 3.0
26/01:00am 7.9 2.1 4.5 79 1.5 SW 24 32 13 17 1015.5 - 3.0
26/12:32am 9.3 2.2 3.8 68 2.4 SW 30 48 16 26 1015.8 - 2.2
26/12:30am 9.2 2.2 4.0 70 2.3 SW 30 41 16 22 1015.7 - 2.2
26/12:00am 10.0 2.2 1.7 56 3.5 WSW 32 44 17 24 1015.6 1015.7 2.2
 
Date/Time
CST
Temp
°C
App
Temp
°C
Dew
Point
°C
Rel
Hum
%
Delta-T
°C
Wind Press
QNH
hPa
Press
MSL
hPa
Rain since
9am
mm
Dir  Spd
km/h
Gust
km/h
Spd
kts
Gust
kts
25/11:30pm 9.5 1.4 0.7 54 3.6 WSW 33 54 18 29 1015.5 - 2.2
25/11:00pm 9.7 2.6 3.3 64 2.8 SW 30 43 16 23 1015.5 - 2.2
25/10:30pm 9.2 0.4 3.7 68 2.4 WSW 39 63 21 34 1015.6 - 2.2
25/10:00pm 8.5 -1.4 2.6 66 2.5 W 44 70 24 38 1015.6 - 2.2
25/09:30pm 9.5 1.5 3.6 66 2.6 W 35 57 19 31 1015.6 - 2.0
25/09:29pm 9.5 1.4 3.0 64 2.8 W 35 57 19 31 1015.5 - 2.0
25/09:00pm 10.2 1.5 -0.2 48 4.2 WSW 35 50 19 27 1015.2 1015.3 2.0
25/08:30pm 10.2 1.5 -0.2 48 4.2 WSW 35 48 19 26 1015.0 - 2.0
25/08:02pm 10.3 1.6 -0.7 46 4.4 WSW 35 54 19 29 1014.7 - 2.0
25/08:00pm 10.2 1.9 -0.5 47 4.3 WSW 33 46 18 25 1014.8 - 2.0
25/07:30pm 10.0 0.9 -0.8 47 4.3 WSW 37 56 20 30 1014.5 - 2.0
25/07:00pm 9.2 -0.1 0.9 56 3.4 WSW 39 61 21 33 1014.0 - 2.0
25/06:32pm 10.1 1.7 1.8 56 3.5 WSW 35 54 19 29 1013.4 - 2.0
25/06:30pm 10.0 1.9 3.1 62 3.0 WSW 35 48 19 26 1013.4 - 2.0
25/06:11pm 8.5 1.2 4.4 75 1.8 SSW 32 41 17 22 1013.3 - 2.0
25/06:00pm 9.7 1.1 2.7 61 3.0 WSW 37 54 20 29 1013.1 1013.3 2.0
25/05:30pm 9.3 1.2 3.3 66 2.6 SW 35 59 19 32 1012.8 - 2.0
25/05:00pm 10.5 0.2 0.6 50 4.1 WSW 44 65 24 35 1012.3 - 2.0
25/04:30pm 10.7 1.2 1.8 54 3.8 WSW 41 63 22 34 1012.0 - 2.0
25/04:00pm 10.7 1.6 2.1 55 3.7 WSW 39 61 21 33 1011.7 - 2.0
25/03:30pm 11.1 -0.1 -0.5 44 4.7 WSW 48 74 26 40 1011.1 - 2.0
25/03:02pm 10.8 1.8 4.4 64 2.9 WSW 41 59 22 32 1011.0 - 2.0
25/03:00pm 11.1 2.6 5.0 66 2.8 WSW 39 56 21 30 1010.9 1011.0 2.0
25/02:30pm 11.1 0.6 3.7 60 3.3 WSW 48 72 26 39 1010.7 - 2.0
25/02:00pm 10.3 0.7 6.3 76 1.9 SW 46 69 25 37 1010.6 - 2.0
25/01:30pm 10.3 1.7 8.1 86 1.1 SW 43 63 23 34 1010.1 - 1.8
25/01:09pm 10.7 2.3 9.1 90 0.8 WSW 43 69 23 37 1010.1 - 1.6
25/01:00pm 10.5 1.9 8.9 90 0.8 WSW 44 59 24 32 1010.1 - 1.6
25/12:49pm 10.5 2.1 8.9 90 0.8 SW 43 56 23 30 1010.1 - 1.4
25/12:30pm 10.7 1.0 8.9 89 0.9 W 50 76 27 41 1010.0 - 1.4
25/12:20pm 11.1 0.4 8.1 82 1.5 WSW 54 82 29 44 1010.1 - 1.0
25/12:00pm 12.9 2.9 10.6 86 1.2 W 54 74 29 40 1010.0 1010.1 1.0
25/11:30am 13.0 2.3 9.5 79 1.8 W 56 78 30 42 1010.1 - 0.6
25/11:00am 12.7 3.6 10.0 84 1.4 WNW 48 72 26 39 1010.2 - 0.2
25/10:30am 13.2 4.7 8.7 74 2.3 WNW 43 65 23 35 1010.5 - 0.0
25/10:00am 12.7 4.2 8.7 76 2.0 WNW 43 65 23 35 1010.9 - 0.0
25/09:33am 12.8 4.6 8.4 74 2.2 WNW 41 59 22 32 1011.1 - 0.0
25/09:30am 12.6 3.9 7.7 72 2.4 WNW 43 59 23 32 1011.0 - 0.0
25/09:11am 11.8 3.6 9.6 86 1.1 WNW 43 63 23 34 1011.2 - 0.0
25/09:00am 11.0 2.5 9.4 90 0.8 WNW 44 59 24 32 1011.4 1011.6 7.2
25/08:38am 11.0 3.6 9.8 92 0.6 WNW 39 57 21 31 1011.4 - 7.2
25/08:30am 10.8 3.0 9.6 92 0.6 WNW 41 57 22 31 1011.5 - 7.2
25/08:00am 11.1 3.5 8.9 86 1.1 WNW 39 61 21 33 1011.9 - 6.8
25/07:39am 12.2 3.9 6.1 66 2.9 WNW 39 57 21 31 1012.0 - 6.4
25/07:30am 12.1 3.9 6.5 68 2.7 WNW 39 54 21 29 1012.0 - 6.4
25/07:00am 11.9 3.8 5.2 63 3.1 WNW 37 54 20 29 1012.0 - 6.4
25/06:30am 11.8 3.0 5.6 66 2.9 WNW 41 54 22 29 1012.1 - 6.4
25/06:00am 11.5 3.1 5.7 67 2.7 WNW 39 54 21 29 1012.2 1012.4 6.4
25/05:30am 11.2 2.9 6.3 72 2.3 W 39 57 21 31 1012.5 - 6.4
25/05:02am 11.2 3.1 6.8 74 2.1 W 39 59 21 32 1012.5 - 6.4
25/05:00am 11.2 3.0 6.6 73 2.2 W 39 54 21 29 1012.4 - 6.4
25/04:48am 10.7 2.9 6.5 75 2.0 W 37 56 20 30 1012.6 - 6.4
25/04:30am 10.7 2.7 7.4 80 1.6 W 39 56 21 30 1012.8 - 6.4
25/04:06am 10.2 3.0 7.7 84 1.2 W 35 54 19 29 1012.8 - 6.4
25/04:00am 10.7 3.3 6.9 77 1.8 W 35 48 19 26 1012.8 - 6.4
25/03:30am 10.2 1.6 6.4 77 1.8 W 41 54 22 29 1013.1 - 6.4
25/03:00am 10.5 3.7 7.8 83 1.3 W 33 65 18 35 1013.2 1013.4 6.2
25/02:30am 9.9 1.5 7.4 84 1.2 W 41 59 22 32 1013.3 - 6.2
25/02:23am 11.1 3.5 5.8 70 2.5 W 35 54 19 29 1013.2 - 6.0
25/02:00am 10.7 3.6 6.2 74 2.1 W 33 46 18 25 1013.3 - 6.0
25/01:30am 10.5 2.8 5.5 71 2.3 WSW 35 50 19 27 1013.3 - 6.0
25/01:09am 9.9 3.8 6.7 80 1.5 W 28 46 15 25 1013.4 - 6.0
25/01:00am 9.4 4.2 7.3 87 1.0 W 24 33 13 18 1013.4 - 6.0
25/12:31am 10.0 3.6 5.4 73 2.1 SW 28 46 15 25 1013.4 - 5.6
25/12:30am 9.7 3.5 6.0 78 1.7 SW 28 41 15 22 1013.5 - 5.6
25/12:00am 9.1 2.2 6.5 84 1.2 W 32 50 17 27 1013.5 1013.7 5.6
 
Date/Time
CST
Temp
°C
App
Temp
°C
Dew
Point
°C
Rel
Hum
%
Delta-T
°C
Wind Press
QNH
hPa
Press
MSL
hPa
Rain since
9am
mm
Dir  Spd
km/h
Gust
km/h
Spd
kts
Gust
kts
24/11:54pm 9.5 1.2 6.3 80 1.5 W 39 50 21 27 1013.5 - 5.6
24/11:30pm 10.4 2.1 2.2 57 3.5 SW 35 54 19 29 1013.1 - 5.4
24/11:01pm 10.7 1.8 2.9 58 3.4 SW 39 57 21 31 1012.9 - 5.4
24/11:00pm 10.7 1.8 2.9 58 3.4 SW 39 54 21 29 1012.9 - 5.4
24/10:35pm 10.0 1.8 4.9 70 2.3 SW 37 56 20 30 1012.6 - 5.4
24/10:30pm 10.3 1.6 4.3 66 2.7 SW 39 56 21 30 1012.6 - 5.4
24/10:00pm 8.7 -0.1 5.6 81 1.4 SW 41 61 22 33 1012.4 - 5.4
24/09:30pm 9.7 1.2 5.3 74 2.0 SW 39 59 21 32 1011.8 - 5.2
24/09:00pm 10.0 1.2 5.4 73 2.1 WSW 41 61 22 33 1011.7 1011.9 5.2
24/08:34pm 10.1 0.5 3.3 62 3.0 WSW 43 61 23 33 1011.2 - 5.2
24/08:30pm 10.4 1.0 5.4 71 2.3 WSW 44 61 24 33 1011.1 - 5.2
24/08:04pm 10.7 1.5 5.3 69 2.5 WSW 43 61 23 33 1010.6 - 5.2
24/08:00pm 10.5 0.8 4.0 64 2.9 WSW 44 61 24 33 1010.5 - 5.2
24/07:30pm 9.6 0.6 6.6 81 1.4 SW 43 61 23 33 1010.2 - 5.2
24/07:00pm 10.8 1.0 5.2 68 2.6 WSW 46 72 25 39 1009.4 - 5.0
24/06:30pm 10.8 -0.6 4.9 67 2.7 WSW 54 74 29 40 1008.8 - 5.0
24/06:00pm 9.8 -1.0 7.5 85 1.1 WSW 54 80 29 43 1008.1 1008.2 5.0
24/05:30pm 10.3 -1.2 7.0 80 1.6 WSW 57 80 31 43 1007.5 - 4.6
24/05:10pm 10.0 0.0 7.7 86 1.1 W 50 93 27 50 1006.7 - 4.0
24/05:00pm 10.5 0.6 8.1 85 1.2 WSW 50 72 27 39 1006.8 - 3.8
24/04:30pm 11.0 -0.8 7.3 78 1.8 WSW 59 80 32 43 1006.1 - 3.8
24/04:00pm 10.6 -0.2 7.7 82 1.4 W 54 80 29 43 1005.6 - 3.8
24/03:50pm 10.6 -1.5 7.9 83 1.3 W 61 83 33 45 1005.3 - 3.6
24/03:30pm 9.6 -0.2 8.6 93 0.5 WSW 50 74 27 40 1005.2 - 3.6
24/03:22pm 9.4 -0.3 7.7 89 0.8 WSW 48 69 26 37 1005.0 - 3.6
24/03:21pm 9.3 0.0 7.6 89 0.8 WSW 46 57 25 31 1004.9 - 3.6
24/03:17pm 9.2 -3.7 7.5 89 0.8 WSW 65 85 35 46 1004.9 - 3.2
24/03:09pm 10.0 -1.8 7.5 84 1.2 W 59 95 32 51 1004.4 - 2.6
24/03:00pm 11.6 0.9 8.0 78 1.8 W 54 76 29 41 1004.4 1004.5 2.6
24/02:30pm 10.0 -2.2 7.5 84 1.2 W 61 85 33 46 1004.1 - 2.6
24/02:00pm 10.3 -0.2 7.4 82 1.4 W 52 70 28 38 1004.3 - 1.8
24/01:30pm 9.6 -0.2 7.1 84 1.2 W 48 72 26 39 1004.7 - 1.6
24/01:00pm 9.4 -0.2 6.4 81 1.4 W 46 76 25 41 1005.0 - 0.6
24/12:30pm 11.4 2.0 4.6 63 3.1 W 43 65 23 35 1005.3 - 0.6
24/12:00pm 11.1 1.5 3.2 58 3.5 W 43 61 23 33 1005.3 1005.4 0.6
24/11:46am 10.4 1.7 4.2 65 2.8 W 39 61 21 33 1005.7 - 0.6
24/11:30am 9.0 1.1 4.3 72 2.1 W 35 52 19 28 1005.8 - 0.6
24/11:00am 10.6 0.7 2.5 57 3.5 W 44 63 24 34 1005.7 - 0.4
24/10:44am 9.8 -1.0 2.1 58 3.3 W 48 82 26 44 1005.4 - 0.4
24/10:30am 11.2 2.0 3.6 59 3.4 W 41 61 22 33 1005.4 - 0.4
24/10:00am 9.4 0.4 4.3 70 2.3 W 41 61 22 33 1005.1 - 0.2
24/09:30am 9.1 0.2 4.9 75 1.9 WSW 41 74 22 40 1004.7 - 0.0
24/09:00am 9.4 0.6 3.7 67 2.5 W 39 59 21 32 1004.2 1004.3 16.2
24/08:30am 8.2 -1.0 5.3 82 1.3 W 43 63 23 34 1004.0 - 15.8
24/08:26am 9.4 1.0 5.7 78 1.7 W 39 57 21 31 1004.1 - 15.6
24/08:00am 8.5 2.8 6.6 88 0.9 W 26 39 14 21 1003.5 - 15.6
24/07:40am 8.1 0.9 5.9 86 1.0 W 33 54 18 29 1004.3 - 15.4
24/07:30am 7.7 0.6 5.5 86 1.0 W 32 46 17 25 1004.1 - 15.2
24/07:00am 7.3 -3.3 5.3 87 0.9 W 50 70 27 38 1003.5 - 14.4
24/06:42am 8.4 -2.9 7.1 91 0.6 W 56 83 30 45 1002.9 - 14.2
24/06:33am 9.0 0.0 7.1 88 0.9 W 44 65 24 35 1002.7 - 14.0
24/06:30am 9.0 0.0 7.1 88 0.9 W 44 59 24 32 1002.7 - 14.0
24/06:23am 9.1 -0.2 7.6 90 0.7 W 46 59 25 32 1002.7 - 13.8
24/06:16am 9.6 1.4 8.4 92 0.6 WNW 41 59 22 32 1003.0 - 13.6
24/06:15am 9.4 1.6 8.4 93 0.5 WNW 39 56 21 30 1003.1 - 13.0
24/06:00am 8.5 0.6 7.7 95 0.4 NNW 39 65 21 35 1003.5 1003.6 9.8
24/05:30am 10.8 1.6 8.2 84 1.3 NW 46 65 25 35 1003.7 - 7.0
24/05:08am 9.9 3.1 9.1 95 0.4 NNW 35 59 19 32 1003.8 - 6.4
24/05:00am 10.4 5.0 9.4 93 0.5 NNW 28 43 15 23 1004.1 - 5.4
24/04:32am 10.1 4.6 9.3 95 0.4 NNW 28 46 15 25 1004.8 - 5.4
24/04:30am 10.0 3.8 9.4 96 0.3 NNW 32 46 17 25 1004.8 - 5.4
24/04:00am 9.9 3.0 8.9 93 0.5 N 35 52 19 28 1005.5 - 4.8
24/03:31am 9.7 2.0 8.5 92 0.6 NNW 39 59 21 32 1006.2 - 4.6
24/03:30am 9.9 2.2 8.7 92 0.6 NNW 39 56 21 30 1006.3 - 4.4
24/03:00am 10.2 2.8 8.4 89 0.9 NNW 37 57 20 31 1007.0 1007.2 3.8
24/02:36am 10.3 3.1 7.8 84 1.2 NNW 35 59 19 32 1007.6 - 3.2
24/02:30am 10.5 3.6 7.4 81 1.5 NNW 33 48 18 26 1007.7 - 3.2
24/02:00am 10.0 3.3 7.5 84 1.2 NNW 32 46 17 25 1008.4 - 3.2
24/01:30am 10.5 3.9 6.0 74 2.1 NNW 30 43 16 23 1009.0 - 2.4
24/01:00am 10.2 4.0 6.1 76 1.9 NNW 28 46 15 25 1009.6 - 2.4
24/12:57am 10.1 3.9 6.3 77 1.8 NNW 28 46 15 25 1009.7 - 2.4
24/12:30am 9.7 4.0 6.5 80 1.5 NNW 26 35 14 19 1010.3 - 2.4
24/12:00am 9.9 3.8 6.5 79 1.6 NNW 28 41 15 22 1011.0 1011.2 2.4
 
Date/Time
CST
Temp
°C
App
Temp
°C
Dew
Point
°C
Rel
Hum
%
Delta-T
°C
Wind Press
QNH
hPa
Press
MSL
hPa
Rain since
9am
mm
Dir  Spd
km/h
Gust
km/h
Spd
kts
Gust
kts
23/11:30pm 9.1 4.6 6.8 85 1.1 NNW 20 37 11 20 1011.4 - 2.2
23/11:00pm 9.4 3.3 6.4 81 1.4 NNW 28 35 15 19 1012.0 - 1.6
23/10:30pm 9.8 4.3 5.9 77 1.8 NW 24 37 13 20 1012.4 - 1.6
23/10:00pm 9.4 4.9 6.2 80 1.5 NW 19 26 10 14 1012.7 - 1.6
23/09:30pm 10.1 5.2 4.3 67 2.6 NW 19 30 10 16 1012.7 - 1.6
23/09:00pm 9.3 4.7 3.9 69 2.4 WNW 17 24 9 13 1012.9 1013.1 1.6
23/08:30pm 9.6 3.9 5.0 73 2.1 NW 24 35 13 19 1013.3 - 1.6
23/08:00pm 8.1 4.5 5.2 82 1.3 SW 13 17 7 9 1013.6 - 1.6
23/07:30pm 9.0 2.9 3.0 66 2.6 WNW 24 32 13 17 1013.7 - 1.6
23/07:00pm 8.3 4.7 5.2 81 1.4 W 13 17 7 9 1013.5 - 1.6
23/06:30pm 8.1 3.4 5.0 81 1.4 WSW 19 26 10 14 1013.7 - 1.6
23/06:00pm 9.4 4.4 3.7 67 2.5 NW 19 28 10 15 1013.5 1013.7 1.0
23/05:30pm 9.7 5.1 3.8 66 2.6 W 17 28 9 15 1013.4 - 1.0
23/05:00pm 10.0 4.8 3.4 63 2.9 W 20 35 11 19 1013.4 - 1.0
23/04:30pm 10.7 5.2 2.1 55 3.7 WSW 20 35 11 19 1013.5 - 1.0
23/04:00pm 11.0 5.6 1.3 51 4.1 WSW 19 30 10 16 1013.6 - 1.0

Other Formats:

Comma delimited format used in spreadsheet applications
http://www.bom.gov.au/fwo/IDS60801/IDS60801.95805.axf

JavaScript Object Notation format (JSON) in row-major order
http://www.bom.gov.au/fwo/IDS60801/IDS60801.95805.json